Sun Day — WDC8625 — position and weather

sailwx.info

Track history (hours):
 
Tides and Currents Weather Stations Pressure Air Temp Water Temp Dewpoint Dewpoint Depression Visibility Wind Speed Wind Dir Waves Ship Positions

Sun Day

Owner: Y&S Marine, Inc., Belle Chasse, LA. More information available from US FCC via Universal Licensing System and Coast Guard Vessel Documentation Center.

Last reported at 2018-Jan-21 07:05 UTC. Time now 2018-Jan-23 13:46 UTC.
Position N 29°44' W 092°06'.

Length 33 m; draft 2 m.

MMSI: 367090390.

Date/timePositionNaut miles runAvg speedWind from/ knotsBaromVisibWave heightAir tempDewpointWater temp
2018-Jan-21 07:05N 29°44' W 092°06'118.5
2018-Jan-21 07:00N 29°45' W 092°07'3 6.3
2018-Jan-21 06:30N 29°48' W 092°09'0 0.0
2018-Jan-21 06:00N 29°48' W 092°09'612.0
2018-Jan-21 05:30N 29°42' W 092°05'0 0.0
2018-Jan-19 19:13N 29°42' W 092°05'416.9
2018-Jan-19 19:00N 29°45' W 092°07'3 5.2
2018-Jan-19 18:30N 29°48' W 092°09'0 0.0
2018-Jan-19 18:00N 29°48' W 092°09'0 0.0
2018-Jan-19 17:30N 29°48' W 092°09'0 0.1
2018-Jan-19 17:00N 29°48' W 092°09'0 0.0
2018-Jan-19 16:30N 29°48' W 092°09'0 0.0
2018-Jan-19 16:00N 29°48' W 092°09'0 0.0
2018-Jan-19 15:30N 29°48' W 092°09'0 0.0
2018-Jan-19 15:00N 29°48' W 092°09'0 0.0
2018-Jan-19 14:30N 29°48' W 092°09'0 0.0
2018-Jan-19 14:00N 29°48' W 092°09'0 0.0
2018-Jan-19 13:30N 29°48' W 092°09'0 0.0
2018-Jan-19 13:00N 29°48' W 092°09'0 0.0
2018-Jan-19 12:30N 29°48' W 092°09'0 0.0
2018-Jan-19 12:00N 29°48' W 092°09'0 0.0
2018-Jan-19 11:30N 29°48' W 092°09'0 0.0
2018-Jan-19 11:00N 29°48' W 092°09'0 0.0
2018-Jan-19 10:30N 29°48' W 092°09'0 0.0
2018-Jan-19 10:00N 29°48' W 092°09'0 0.0
2018-Jan-19 09:30N 29°48' W 092°09'0 0.0
2018-Jan-19 08:59N 29°48' W 092°09'0 0.0
2018-Jan-19 08:30N 29°48' W 092°09'0 0.0
2018-Jan-19 08:00N 29°48' W 092°09'0 0.0
2018-Jan-19 07:30N 29°48' W 092°09'0 0.0
2018-Jan-19 07:00N 29°48' W 092°09'0 0.0
2018-Jan-19 06:30N 29°48' W 092°09'0 0.0
2018-Jan-19 06:00N 29°48' W 092°09'0 0.0
2018-Jan-19 05:29N 29°48' W 092°09'0 0.0
2018-Jan-19 05:00N 29°48' W 092°09'0 0.0
2018-Jan-19 04:30N 29°48' W 092°09'0 0.0
2018-Jan-19 04:00N 29°48' W 092°09'0 0.0
2018-Jan-19 03:28N 29°48' W 092°09'0 0.0
2018-Jan-19 03:00N 29°48' W 092°09'0 0.0
2018-Jan-19 02:29N 29°48' W 092°09'0 0.0
2018-Jan-19 02:00N 29°48' W 092°09'0 0.0
2018-Jan-19 01:30N 29°48' W 092°09'0 0.9
2018-Jan-19 01:00N 29°47' W 092°09'2 3.9
2018-Jan-19 00:30N 29°47' W 092°11'0 0.0
2018-Jan-19 00:00N 29°47' W 092°11'1 1.1
2018-Jan-18 23:30N 29°47' W 092°10'2 3.5
2018-Jan-18 23:00N 29°48' W 092°09'0 0.0
2018-Jan-18 22:30N 29°48' W 092°09'0 0.0
2018-Jan-18 22:00N 29°48' W 092°09'0 0.0
2018-Jan-18 21:30N 29°48' W 092°09'0 0.0
2018-Jan-18 21:00N 29°48' W 092°09'0 0.0
2018-Jan-18 20:30N 29°48' W 092°09'0 0.0
2018-Jan-18 20:00N 29°48' W 092°09'0 0.0
2018-Jan-18 19:30N 29°48' W 092°09'0 0.0
2018-Jan-18 19:00N 29°48' W 092°09'0 0.0
2018-Jan-18 18:30N 29°48' W 092°09'0 0.0
2018-Jan-18 18:00N 29°48' W 092°09'0 0.0
2018-Jan-18 17:30N 29°48' W 092°09'0 0.0
2018-Jan-18 17:00N 29°48' W 092°09'0 0.0
2018-Jan-18 16:30N 29°48' W 092°09'0 0.0
2018-Jan-18 16:00N 29°48' W 092°09'0 0.0
2018-Jan-18 15:30N 29°48' W 092°09'0 0.0
2018-Jan-18 15:00N 29°48' W 092°09'0 0.0
2018-Jan-18 14:30N 29°48' W 092°09'0 0.0
2018-Jan-18 14:00N 29°48' W 092°09'0 0.0
2018-Jan-18 13:30N 29°48' W 092°09'0 0.0
2018-Jan-18 13:00N 29°48' W 092°09'0 0.0
2018-Jan-18 12:30N 29°48' W 092°09'0 0.0
2018-Jan-18 12:00N 29°48' W 092°09'0 0.0
2018-Jan-18 11:30N 29°48' W 092°09'0 0.0
2018-Jan-18 10:58N 29°48' W 092°09'0 0.0
2018-Jan-18 10:30N 29°48' W 092°09'0 0.0
2018-Jan-18 10:00N 29°48' W 092°09'0 0.0
2018-Jan-18 09:30N 29°48' W 092°09'0 0.0
2018-Jan-18 09:00N 29°48' W 092°09'0 0.0
2018-Jan-18 08:30N 29°48' W 092°09'0 0.0
2018-Jan-18 08:00N 29°48' W 092°09'0 0.0
2018-Jan-18 07:30N 29°48' W 092°09'0 0.0
2018-Jan-18 07:00N 29°48' W 092°09'0 0.0
2018-Jan-18 06:30N 29°48' W 092°09'0 0.0
2018-Jan-18 06:00N 29°48' W 092°09'0 0.0
2018-Jan-18 05:30N 29°48' W 092°09'0 0.0
2018-Jan-18 05:00N 29°48' W 092°09'0 0.0
2018-Jan-18 04:30N 29°48' W 092°09'0 0.0
2018-Jan-18 04:00N 29°48' W 092°09'0 0.0
2018-Jan-18 03:30N 29°48' W 092°09'0 0.0
2018-Jan-18 03:00N 29°48' W 092°09'0 0.0
2018-Jan-18 02:30N 29°48' W 092°09'0 0.0
2018-Jan-18 02:00N 29°48' W 092°09'0 0.0
2018-Jan-18 01:30N 29°48' W 092°09'0 0.0
2018-Jan-18 01:00N 29°48' W 092°09'0 0.0
2018-Jan-18 00:00N 29°48' W 092°09'0 0.1
2018-Jan-17 23:57N 29°48' W 092°09'  
Track history (hours):
 
Tides and Currents Weather Stations Pressure Air Temp Water Temp Dewpoint Dewpoint Depression Visibility Wind Speed Wind Dir Waves Ship Positions

Sun Day

Owner: Y&S Marine, Inc., Belle Chasse, LA. More information available from US FCC via Universal Licensing System and Coast Guard Vessel Documentation Center.

Last reported at 2018-Jan-21 07:05 UTC. Time now 2018-Jan-23 13:46 UTC.
Position N 29°44' W 092°06'.

Length 33 m; draft 2 m.

MMSI: 367090390.

Date/timePositionNaut miles runAvg speedWind from/ knotsBaromVisibWave heightAir tempDewpointWater temp
2018-Jan-21 07:05N 29°44' W 092°06'118.5
2018-Jan-21 07:00N 29°45' W 092°07'3 6.3
2018-Jan-21 06:30N 29°48' W 092°09'0 0.0
2018-Jan-21 06:00N 29°48' W 092°09'612.0
2018-Jan-21 05:30N 29°42' W 092°05'0 0.0
2018-Jan-19 19:13N 29°42' W 092°05'416.9
2018-Jan-19 19:00N 29°45' W 092°07'3 5.2
2018-Jan-19 18:30N 29°48' W 092°09'0 0.0
2018-Jan-19 18:00N 29°48' W 092°09'0 0.0
2018-Jan-19 17:30N 29°48' W 092°09'0 0.1
2018-Jan-19 17:00N 29°48' W 092°09'0 0.0
2018-Jan-19 16:30N 29°48' W 092°09'0 0.0
2018-Jan-19 16:00N 29°48' W 092°09'0 0.0
2018-Jan-19 15:30N 29°48' W 092°09'0 0.0
2018-Jan-19 15:00N 29°48' W 092°09'0 0.0
2018-Jan-19 14:30N 29°48' W 092°09'0 0.0
2018-Jan-19 14:00N 29°48' W 092°09'0 0.0
2018-Jan-19 13:30N 29°48' W 092°09'0 0.0
2018-Jan-19 13:00N 29°48' W 092°09'0 0.0
2018-Jan-19 12:30N 29°48' W 092°09'0 0.0
2018-Jan-19 12:00N 29°48' W 092°09'0 0.0
2018-Jan-19 11:30N 29°48' W 092°09'0 0.0
2018-Jan-19 11:00N 29°48' W 092°09'0 0.0
2018-Jan-19 10:30N 29°48' W 092°09'0 0.0
2018-Jan-19 10:00N 29°48' W 092°09'0 0.0
2018-Jan-19 09:30N 29°48' W 092°09'0 0.0
2018-Jan-19 08:59N 29°48' W 092°09'0 0.0
2018-Jan-19 08:30N 29°48' W 092°09'0 0.0
2018-Jan-19 08:00N 29°48' W 092°09'0 0.0
2018-Jan-19 07:30N 29°48' W 092°09'0 0.0
2018-Jan-19 07:00N 29°48' W 092°09'0 0.0
2018-Jan-19 06:30N 29°48' W 092°09'0 0.0
2018-Jan-19 06:00N 29°48' W 092°09'0 0.0
2018-Jan-19 05:29N 29°48' W 092°09'0 0.0
2018-Jan-19 05:00N 29°48' W 092°09'0 0.0
2018-Jan-19 04:30N 29°48' W 092°09'0 0.0
2018-Jan-19 04:00N 29°48' W 092°09'0 0.0
2018-Jan-19 03:28N 29°48' W 092°09'0 0.0
2018-Jan-19 03:00N 29°48' W 092°09'0 0.0
2018-Jan-19 02:29N 29°48' W 092°09'0 0.0
2018-Jan-19 02:00N 29°48' W 092°09'0 0.0
2018-Jan-19 01:30N 29°48' W 092°09'0 0.9
2018-Jan-19 01:00N 29°47' W 092°09'2 3.9
2018-Jan-19 00:30N 29°47' W 092°11'0 0.0
2018-Jan-19 00:00N 29°47' W 092°11'1 1.1
2018-Jan-18 23:30N 29°47' W 092°10'2 3.5
2018-Jan-18 23:00N 29°48' W 092°09'0 0.0
2018-Jan-18 22:30N 29°48' W 092°09'0 0.0
2018-Jan-18 22:00N 29°48' W 092°09'0 0.0
2018-Jan-18 21:30N 29°48' W 092°09'0 0.0
2018-Jan-18 21:00N 29°48' W 092°09'0 0.0
2018-Jan-18 20:30N 29°48' W 092°09'0 0.0
2018-Jan-18 20:00N 29°48' W 092°09'0 0.0
2018-Jan-18 19:30N 29°48' W 092°09'0 0.0
2018-Jan-18 19:00N 29°48' W 092°09'0 0.0
2018-Jan-18 18:30N 29°48' W 092°09'0 0.0
2018-Jan-18 18:00N 29°48' W 092°09'0 0.0
2018-Jan-18 17:30N 29°48' W 092°09'0 0.0
2018-Jan-18 17:00N 29°48' W 092°09'0 0.0
2018-Jan-18 16:30N 29°48' W 092°09'0 0.0
2018-Jan-18 16:00N 29°48' W 092°09'0 0.0
2018-Jan-18 15:30N 29°48' W 092°09'0 0.0
2018-Jan-18 15:00N 29°48' W 092°09'0 0.0
2018-Jan-18 14:30N 29°48' W 092°09'0 0.0
2018-Jan-18 14:00N 29°48' W 092°09'0 0.0
2018-Jan-18 13:30N 29°48' W 092°09'0 0.0
2018-Jan-18 13:00N 29°48' W 092°09'0 0.0
2018-Jan-18 12:30N 29°48' W 092°09'0 0.0
2018-Jan-18 12:00N 29°48' W 092°09'0 0.0
2018-Jan-18 11:30N 29°48' W 092°09'0 0.0
2018-Jan-18 10:58N 29°48' W 092°09'0 0.0
2018-Jan-18 10:30N 29°48' W 092°09'0 0.0
2018-Jan-18 10:00N 29°48' W 092°09'0 0.0
2018-Jan-18 09:30N 29°48' W 092°09'0 0.0
2018-Jan-18 09:00N 29°48' W 092°09'0 0.0
2018-Jan-18 08:30N 29°48' W 092°09'0 0.0
2018-Jan-18 08:00N 29°48' W 092°09'0 0.0
2018-Jan-18 07:30N 29°48' W 092°09'0 0.0
2018-Jan-18 07:00N 29°48' W 092°09'0 0.0
2018-Jan-18 06:30N 29°48' W 092°09'0 0.0
2018-Jan-18 06:00N 29°48' W 092°09'0 0.0
2018-Jan-18 05:30N 29°48' W 092°09'0 0.0
2018-Jan-18 05:00N 29°48' W 092°09'0 0.0
2018-Jan-18 04:30N 29°48' W 092°09'0 0.0
2018-Jan-18 04:00N 29°48' W 092°09'0 0.0
2018-Jan-18 03:30N 29°48' W 092°09'0 0.0
2018-Jan-18 03:00N 29°48' W 092°09'0 0.0
2018-Jan-18 02:30N 29°48' W 092°09'0 0.0
2018-Jan-18 02:00N 29°48' W 092°09'0 0.0
2018-Jan-18 01:30N 29°48' W 092°09'0 0.0
2018-Jan-18 01:00N 29°48' W 092°09'0 0.0
2018-Jan-18 00:00N 29°48' W 092°09'0 0.1
2018-Jan-17 23:57N 29°48' W 092°09'  

Dump ship's entire track history